AAL72 YSSY-KLAX
Flight info
| Callsign | AAL72 |
|---|---|
| Flight time | N/A |
| Altitude | 31000 |
| Route | DIPSO G595 SOTKI DCT 32S160E DCT TEKEP DCT 28S170E DCT DOLSI/N0504F330 B450 TUT B577 QUIGG/N0496F350 B577 AHNDO/N0480F370 B577 FICKY GOATZ2 |
| Aircraft | B77W/H-SDE1E2E3FGHIJ2J3J4J5M1RWXY/LB1D1 |
Departure
| Time | 2026-05-07 04:38 |
|---|---|
| Airport | Sydney Kingsford Smith International Airport (YSSY) |
Arrival
| Time | N/A |
|---|---|
| Airport | Los Angeles International Airport (KLAX) |
| Time | Latitude | Longitude | Altitude | Speed | Heading |
|---|---|---|---|---|---|
| 2026-05-07 04:11 | -33.94037 | 151.16543 | 26 ft | 0 kts | 345° |
| 2026-05-07 04:24 | -33.94049 | 151.16546 | 30 ft | 3 kts | 352° |
| 2026-05-07 04:24 | -33.94072 | 151.16552 | 31 ft | 3 kts | 347° |
| 2026-05-07 04:24 | -33.94095 | 151.16558 | 31 ft | 3 kts | 347° |
| 2026-05-07 04:25 | -33.94116 | 151.16564 | 31 ft | 3 kts | 353° |
| 2026-05-07 04:25 | -33.94133 | 151.16563 | 31 ft | 4 kts | 59° |
| 2026-05-07 04:25 | -33.94136 | 151.16539 | 31 ft | 3 kts | 88° |
| 2026-05-07 04:25 | -33.94138 | 151.16518 | 31 ft | 1 kts | 74° |
| 2026-05-07 04:26 | -33.94139 | 151.16514 | 31 ft | 0 kts | 74° |
| 2026-05-07 04:29 | -33.94138 | 151.16520 | 31 ft | 2 kts | 74° |
| 2026-05-07 04:29 | -33.94130 | 151.16551 | 31 ft | 4 kts | 73° |
| 2026-05-07 04:29 | -33.94122 | 151.16586 | 31 ft | 4 kts | 73° |
| 2026-05-07 04:29 | -33.94113 | 151.16621 | 30 ft | 4 kts | 73° |
| 2026-05-07 04:30 | -33.94105 | 151.16657 | 29 ft | 5 kts | 73° |
| 2026-05-07 04:30 | -33.94087 | 151.16730 | 29 ft | 13 kts | 73° |
| 2026-05-07 04:30 | -33.94061 | 151.16837 | 26 ft | 13 kts | 73° |
| 2026-05-07 04:30 | -33.94036 | 151.16943 | 29 ft | 13 kts | 74° |
| 2026-05-07 04:31 | -33.94010 | 151.17049 | 29 ft | 13 kts | 74° |
| 2026-05-07 04:31 | -33.93985 | 151.17153 | 27 ft | 8 kts | 74° |
| 2026-05-07 04:31 | -33.93956 | 151.17202 | 26 ft | 8 kts | 15° |
| 2026-05-07 04:31 | -33.93894 | 151.17199 | 21 ft | 9 kts | 352° |
| 2026-05-07 04:32 | -33.93831 | 151.17186 | 20 ft | 9 kts | 350° |
| 2026-05-07 04:32 | -33.93766 | 151.17171 | 22 ft | 10 kts | 347° |
| 2026-05-07 04:32 | -33.93701 | 151.17153 | 25 ft | 10 kts | 347° |
| 2026-05-07 04:32 | -33.93637 | 151.17135 | 28 ft | 10 kts | 347° |
| 2026-05-07 04:33 | -33.93572 | 151.17116 | 28 ft | 10 kts | 346° |
| 2026-05-07 04:33 | -33.93508 | 151.17098 | 28 ft | 10 kts | 348° |
| 2026-05-07 04:33 | -33.93436 | 151.17082 | 28 ft | 12 kts | 349° |
| 2026-05-07 04:33 | -33.93348 | 151.17053 | 28 ft | 14 kts | 336° |
| 2026-05-07 04:34 | -33.93269 | 151.16980 | 28 ft | 15 kts | 320° |
| 2026-05-07 04:34 | -33.93174 | 151.16940 | 28 ft | 15 kts | 346° |
| 2026-05-07 04:34 | -33.93092 | 151.16916 | 28 ft | 6 kts | 347° |
| 2026-05-07 04:34 | -33.93090 | 151.16916 | 29 ft | 0 kts | 348° |
| 2026-05-07 04:35 | -33.93089 | 151.16916 | 29 ft | 0 kts | 348° |
| 2026-05-07 04:35 | -33.93085 | 151.16915 | 28 ft | 2 kts | 347° |
| 2026-05-07 04:35 | -33.93056 | 151.16908 | 28 ft | 5 kts | 352° |
| 2026-05-07 04:36 | -33.93022 | 151.16909 | 29 ft | 6 kts | 10° |
| 2026-05-07 04:36 | -33.92990 | 151.16947 | 29 ft | 7 kts | 66° |
| 2026-05-07 04:36 | -33.92973 | 151.17008 | 27 ft | 9 kts | 74° |
| 2026-05-07 04:36 | -33.92957 | 151.17089 | 28 ft | 9 kts | 78° |
| 2026-05-07 04:37 | -33.92957 | 151.17145 | 25 ft | 7 kts | 118° |
| 2026-05-07 04:37 | -33.92999 | 151.17173 | 27 ft | 7 kts | 161° |
| 2026-05-07 04:37 | -33.93009 | 151.17176 | 27 ft | 0 kts | 163° |
| 2026-05-07 04:37 | -33.93023 | 151.17181 | 27 ft | 10 kts | 166° |
| 2026-05-07 04:38 | -33.93309 | 151.17255 | 28 ft | 80 kts | 168° |
| 2026-05-07 04:38 | -33.94096 | 151.17459 | 27 ft | 150 kts | 167° |
| 2026-05-07 04:38 | -33.95286 | 151.17782 | 173 ft | 185 kts | 171° |
| 2026-05-07 04:38 | -33.96506 | 151.18187 | 826 ft | 185 kts | 169° |
| 2026-05-07 04:39 | -33.97763 | 151.18612 | 1307 ft | 188 kts | 173° |
| 2026-05-07 04:39 | -33.99031 | 151.18788 | 1851 ft | 179 kts | 192° |
| 2026-05-07 04:39 | -34.00277 | 151.18680 | 2387 ft | 183 kts | 193° |
| 2026-05-07 04:39 | -34.01580 | 151.18651 | 2803 ft | 195 kts | 182° |
| 2026-05-07 04:40 | -34.02957 | 151.18852 | 3132 ft | 206 kts | 180° |
| 2026-05-07 04:40 | -34.04392 | 151.19396 | 3262 ft | 230 kts | 155° |
| 2026-05-07 04:40 | -34.05526 | 151.20856 | 3538 ft | 252 kts | 123° |
| 2026-05-07 04:40 | -34.05939 | 151.22960 | 3861 ft | 267 kts | 91° |
| 2026-05-07 04:41 | -34.05722 | 151.25240 | 4140 ft | 280 kts | 82° |
| 2026-05-07 04:41 | -34.05283 | 151.27607 | 4362 ft | 298 kts | 77° |
| 2026-05-07 04:41 | -34.04807 | 151.30045 | 4757 ft | 307 kts | 79° |
| 2026-05-07 04:41 | -34.04356 | 151.32597 | 5309 ft | 312 kts | 80° |
| 2026-05-07 04:42 | -34.03902 | 151.35183 | 5840 ft | 319 kts | 80° |
| 2026-05-07 04:42 | -34.03437 | 151.37806 | 6430 ft | 321 kts | 79° |
| 2026-05-07 04:42 | -34.02968 | 151.40420 | 7102 ft | 318 kts | 79° |
| 2026-05-07 04:42 | -34.02492 | 151.43044 | 7633 ft | 322 kts | 79° |
| 2026-05-07 04:43 | -34.02012 | 151.45688 | 8169 ft | 324 kts | 79° |
| 2026-05-07 04:43 | -34.01524 | 151.48361 | 8682 ft | 328 kts | 79° |
| 2026-05-07 04:43 | -34.01030 | 151.51063 | 9189 ft | 330 kts | 79° |
| 2026-05-07 04:43 | -34.00536 | 151.53758 | 9851 ft | 330 kts | 79° |
| 2026-05-07 04:44 | -34.00036 | 151.56477 | 10285 ft | 336 kts | 79° |
| 2026-05-07 04:44 | -33.99518 | 151.59302 | 10437 ft | 354 kts | 78° |
| 2026-05-07 04:44 | -33.98971 | 151.62275 | 10555 ft | 372 kts | 78° |
| 2026-05-07 04:44 | -33.98404 | 151.65345 | 10728 ft | 390 kts | 77° |
| 2026-05-07 04:45 | -33.97801 | 151.68601 | 10962 ft | 405 kts | 77° |
| 2026-05-07 04:45 | -33.97181 | 151.71946 | 11442 ft | 413 kts | 76° |
| 2026-05-07 04:45 | -33.96549 | 151.75351 | 11976 ft | 419 kts | 76° |
| 2026-05-07 04:45 | -33.95907 | 151.78807 | 12601 ft | 424 kts | 75° |
| 2026-05-07 04:46 | -33.95262 | 151.82280 | 13240 ft | 427 kts | 75° |
| 2026-05-07 04:46 | -33.94607 | 151.85794 | 13873 ft | 431 kts | 74° |
| 2026-05-07 04:46 | -33.93945 | 151.89344 | 14381 ft | 437 kts | 73° |
| 2026-05-07 04:46 | -33.93273 | 151.92937 | 14865 ft | 443 kts | 73° |
| 2026-05-07 04:47 | -33.92597 | 151.96560 | 15488 ft | 444 kts | 70° |
| 2026-05-07 04:47 | -33.91914 | 152.00205 | 16001 ft | 449 kts | 70° |
| 2026-05-07 04:47 | -33.91219 | 152.03904 | 16436 ft | 457 kts | 71° |
| 2026-05-07 04:47 | -33.90700 | 152.07725 | 16914 ft | 468 kts | 77° |
| 2026-05-07 04:48 | -33.90521 | 152.11621 | 17411 ft | 479 kts | 84° |
| 2026-05-07 04:48 | -33.90567 | 152.15660 | 17886 ft | 485 kts | 84° |
| 2026-05-07 04:48 | -33.90629 | 152.19748 | 18158 ft | 494 kts | 84° |
| 2026-05-07 04:48 | -33.90689 | 152.23943 | 18406 ft | 505 kts | 84° |
| 2026-05-07 04:49 | -33.90742 | 152.28184 | 18829 ft | 508 kts | 84° |
| 2026-05-07 04:49 | -33.90788 | 152.32442 | 19379 ft | 509 kts | 84° |
| 2026-05-07 04:49 | -33.90826 | 152.36714 | 19894 ft | 511 kts | 84° |
| 2026-05-07 04:49 | -33.90857 | 152.41000 | 20332 ft | 515 kts | 84° |
| 2026-05-07 04:50 | -33.90882 | 152.45337 | 20758 ft | 519 kts | 84° |
| 2026-05-07 04:50 | -33.90905 | 152.49692 | 21207 ft | 522 kts | 84° |
| 2026-05-07 04:50 | -33.90928 | 152.54074 | 21665 ft | 524 kts | 83° |
| 2026-05-07 04:50 | -33.90952 | 152.58443 | 22351 ft | 521 kts | 83° |
| 2026-05-07 04:51 | -33.90973 | 152.62824 | 22792 ft | 525 kts | 83° |
| 2026-05-07 04:51 | -33.90990 | 152.67237 | 23094 ft | 531 kts | 83° |
| 2026-05-07 04:51 | -33.91006 | 152.71697 | 23440 ft | 535 kts | 83° |
| 2026-05-07 04:51 | -33.91022 | 152.76181 | 23812 ft | 538 kts | 83° |
| 2026-05-07 04:52 | -33.91038 | 152.80633 | 24178 ft | 539 kts | 83° |
| 2026-05-07 04:52 | -33.91052 | 152.85154 | 24538 ft | 541 kts | 83° |
| 2026-05-07 04:52 | -33.91065 | 152.89687 | 24901 ft | 543 kts | 83° |
| 2026-05-07 04:52 | -33.91076 | 152.94240 | 25205 ft | 546 kts | 83° |
| 2026-05-07 04:53 | -33.91084 | 152.98826 | 25512 ft | 549 kts | 83° |
| 2026-05-07 04:53 | -33.91091 | 153.03437 | 25802 ft | 552 kts | 83° |
| 2026-05-07 04:53 | -33.91097 | 153.08067 | 26111 ft | 555 kts | 83° |
| 2026-05-07 04:53 | -33.91100 | 153.12718 | 26421 ft | 557 kts | 83° |
| 2026-05-07 04:54 | -33.91096 | 153.17389 | 26649 ft | 559 kts | 84° |
| 2026-05-07 04:54 | -33.91088 | 153.22091 | 26892 ft | 563 kts | 84° |
| 2026-05-07 04:54 | -33.91077 | 153.26833 | 27116 ft | 567 kts | 84° |
| 2026-05-07 04:54 | -33.91065 | 153.31593 | 27391 ft | 570 kts | 84° |
| 2026-05-07 04:55 | -33.91053 | 153.36370 | 27697 ft | 572 kts | 84° |
| 2026-05-07 04:55 | -33.91040 | 153.41165 | 27975 ft | 574 kts | 84° |
| 2026-05-07 04:55 | -33.91025 | 153.45923 | 28232 ft | 575 kts | 83° |
| 2026-05-07 04:55 | -33.91009 | 153.50793 | 28565 ft | 575 kts | 83° |
| 2026-05-07 04:56 | -33.90990 | 153.55563 | 28790 ft | 578 kts | 83° |
| 2026-05-07 04:56 | -33.90968 | 153.60416 | 28975 ft | 581 kts | 83° |
| 2026-05-07 04:56 | -33.90945 | 153.65294 | 29216 ft | 582 kts | 83° |
| 2026-05-07 04:56 | -33.90922 | 153.70167 | 29529 ft | 582 kts | 83° |
| 2026-05-07 04:57 | -33.90896 | 153.75038 | 29809 ft | 581 kts | 83° |
| 2026-05-07 04:57 | -33.90871 | 153.79880 | 30296 ft | 576 kts | 83° |
| 2026-05-07 04:57 | -33.90847 | 153.84694 | 30641 ft | 574 kts | 83° |
| 2026-05-07 04:57 | -33.90818 | 153.89512 | 30821 ft | 576 kts | 83° |
| 2026-05-07 04:58 | -33.90752 | 153.99214 | 30903 ft | 580 kts | 83° |
| 2026-05-07 04:58 | -33.90685 | 154.08878 | 30880 ft | 573 kts | 82° |
| 2026-05-07 04:59 | -33.90612 | 154.18434 | 30860 ft | 568 kts | 83° |
| 2026-05-07 04:59 | -33.90526 | 154.27929 | 30906 ft | 566 kts | 83° |
| 2026-05-07 05:00 | -33.90432 | 154.37385 | 30886 ft | 571 kts | 83° |
| 2026-05-07 05:00 | -33.90337 | 154.46934 | 30890 ft | 569 kts | 83° |
| 2026-05-07 05:01 | -33.89899 | 154.56365 | 30894 ft | 559 kts | 76° |
| 2026-05-07 05:01 | -33.89067 | 154.65656 | 30893 ft | 558 kts | 76° |
| 2026-05-07 05:02 | -33.88244 | 154.74928 | 30889 ft | 557 kts | 76° |
| 2026-05-07 05:02 | -33.87587 | 154.82652 | 30890 ft | 557 kts | 77° |
| 2026-05-07 05:03 | -33.86802 | 154.91933 | 30889 ft | 557 kts | 76° |
| 2026-05-07 05:03 | -33.86006 | 155.01211 | 30881 ft | 557 kts | 76° |
| 2026-05-07 05:04 | -33.85203 | 155.10484 | 30877 ft | 555 kts | 76° |
| 2026-05-07 05:04 | -33.83811 | 155.19508 | 30883 ft | 542 kts | 65° |
| 2026-05-07 05:05 | -33.81279 | 155.27832 | 30882 ft | 528 kts | 56° |
| 2026-05-07 05:05 | -33.78305 | 155.35914 | 30886 ft | 528 kts | 56° |
| 2026-05-07 05:06 | -33.75356 | 155.44018 | 30885 ft | 529 kts | 57° |
| 2026-05-07 05:06 | -33.72428 | 155.52143 | 30880 ft | 530 kts | 57° |
| 2026-05-07 05:07 | -33.69504 | 155.60272 | 30882 ft | 530 kts | 57° |
| 2026-05-07 05:07 | -33.66576 | 155.68385 | 30871 ft | 529 kts | 57° |
| 2026-05-07 05:08 | -33.63670 | 155.76421 | 30865 ft | 528 kts | 57° |
| 2026-05-07 05:08 | -33.60739 | 155.84495 | 30870 ft | 527 kts | 57° |
| 2026-05-07 05:09 | -33.57805 | 155.92556 | 30871 ft | 527 kts | 57° |
| 2026-05-07 05:09 | -33.54875 | 156.00585 | 30870 ft | 525 kts | 57° |
| 2026-05-07 05:10 | -33.51943 | 156.08602 | 30872 ft | 524 kts | 57° |
| 2026-05-07 05:10 | -33.49012 | 156.16596 | 30866 ft | 524 kts | 57° |
| 2026-05-07 05:11 | -33.46076 | 156.24585 | 30873 ft | 523 kts | 57° |
| 2026-05-07 05:11 | -33.43137 | 156.32561 | 30856 ft | 523 kts | 57° |
| 2026-05-07 05:12 | -33.40216 | 156.40470 | 30843 ft | 522 kts | 58° |
| 2026-05-07 05:12 | -33.37273 | 156.48421 | 30864 ft | 522 kts | 58° |
| 2026-05-07 05:13 | -33.34325 | 156.56365 | 30873 ft | 523 kts | 58° |
| 2026-05-07 05:13 | -33.31369 | 156.64308 | 30864 ft | 523 kts | 58° |
| 2026-05-07 05:14 | -33.28405 | 156.72261 | 30870 ft | 523 kts | 58° |
| 2026-05-07 05:14 | -33.25435 | 156.80210 | 30875 ft | 523 kts | 58° |
| 2026-05-07 05:15 | -33.22462 | 156.88148 | 30864 ft | 523 kts | 58° |
| 2026-05-07 05:15 | -33.19506 | 156.96017 | 30868 ft | 522 kts | 58° |
| 2026-05-07 05:16 | -33.16527 | 157.03935 | 30873 ft | 522 kts | 58° |
| 2026-05-07 05:16 | -33.13547 | 157.11833 | 30872 ft | 522 kts | 58° |
| 2026-05-07 05:17 | -33.10562 | 157.19728 | 30871 ft | 521 kts | 58° |
| 2026-05-07 05:17 | -33.07596 | 157.27550 | 30857 ft | 520 kts | 58° |
| 2026-05-07 05:18 | -33.04613 | 157.35402 | 30872 ft | 520 kts | 58° |
| 2026-05-07 05:18 | -33.01618 | 157.43266 | 30885 ft | 521 kts | 58° |
| 2026-05-07 05:19 | -32.98614 | 157.51135 | 30882 ft | 521 kts | 58° |
| 2026-05-07 05:19 | -32.95605 | 157.58998 | 30882 ft | 522 kts | 58° |
| 2026-05-07 05:20 | -32.92590 | 157.66862 | 30885 ft | 521 kts | 58° |
| 2026-05-07 05:20 | -32.89598 | 157.74647 | 30882 ft | 520 kts | 58° |
| 2026-05-07 05:21 | -32.85068 | 157.86400 | 30889 ft | 521 kts | 58° |
| 2026-05-07 05:22 | -32.82038 | 157.94234 | 30912 ft | 521 kts | 59° |
| 2026-05-07 05:22 | -32.79008 | 158.02056 | 30889 ft | 521 kts | 59° |
| 2026-05-07 05:23 | -32.75975 | 158.09868 | 30890 ft | 521 kts | 59° |
| 2026-05-07 05:23 | -32.72941 | 158.17662 | 30897 ft | 521 kts | 59° |
| 2026-05-07 05:24 | -32.69888 | 158.25484 | 30892 ft | 523 kts | 59° |
| 2026-05-07 05:24 | -32.66829 | 158.33309 | 30900 ft | 524 kts | 59° |
| 2026-05-07 05:25 | -32.63751 | 158.41162 | 30901 ft | 525 kts | 59° |
| 2026-05-07 05:25 | -32.60665 | 158.49021 | 30906 ft | 525 kts | 59° |
| 2026-05-07 05:26 | -32.57592 | 158.56829 | 30874 ft | 526 kts | 58° |
| 2026-05-07 05:26 | -32.54487 | 158.64698 | 30900 ft | 526 kts | 58° |
| 2026-05-07 05:27 | -32.51374 | 158.72566 | 30913 ft | 528 kts | 58° |
| 2026-05-07 05:27 | -32.48252 | 158.80444 | 30911 ft | 529 kts | 58° |
| 2026-05-07 05:28 | -32.45118 | 158.88332 | 30909 ft | 530 kts | 58° |
| 2026-05-07 05:28 | -32.41976 | 158.96225 | 30910 ft | 530 kts | 58° |
| 2026-05-07 05:29 | -32.38851 | 159.04060 | 30900 ft | 529 kts | 58° |
| 2026-05-07 05:29 | -32.35695 | 159.11949 | 30907 ft | 530 kts | 58° |
| 2026-05-07 05:30 | -32.32534 | 159.19833 | 30908 ft | 531 kts | 58° |
| 2026-05-07 05:30 | -32.29363 | 159.27726 | 30924 ft | 532 kts | 58° |
| 2026-05-07 05:31 | -32.26180 | 159.35630 | 30925 ft | 532 kts | 58° |
| 2026-05-07 05:31 | -32.22991 | 159.43534 | 30916 ft | 532 kts | 58° |
| 2026-05-07 05:32 | -32.19791 | 159.51449 | 30913 ft | 534 kts | 57° |
| 2026-05-07 05:32 | -32.16590 | 159.59338 | 30929 ft | 537 kts | 57° |
| 2026-05-07 05:33 | -32.13355 | 159.67299 | 30931 ft | 539 kts | 57° |
| 2026-05-07 05:33 | -32.10111 | 159.75271 | 30931 ft | 540 kts | 57° |
| 2026-05-07 05:34 | -32.06853 | 159.83257 | 30925 ft | 540 kts | 57° |
| 2026-05-07 05:34 | -32.03596 | 159.91228 | 30888 ft | 539 kts | 56° |
| 2026-05-07 05:35 | -32.00321 | 159.99207 | 30930 ft | 541 kts | 55° |
| 2026-05-07 05:35 | -31.96711 | 160.06959 | 30940 ft | 539 kts | 51° |
| 2026-05-07 05:36 | -31.92968 | 160.14569 | 30942 ft | 542 kts | 51° |
| 2026-05-07 05:36 | -31.89184 | 160.22272 | 30928 ft | 544 kts | 51° |
| 2026-05-07 05:37 | -31.85412 | 160.30002 | 30937 ft | 544 kts | 51° |
| 2026-05-07 05:37 | -31.81650 | 160.37720 | 30930 ft | 543 kts | 51° |
| 2026-05-07 05:38 | -31.77892 | 160.45414 | 30938 ft | 542 kts | 51° |
| 2026-05-07 05:38 | -31.74137 | 160.53077 | 30940 ft | 540 kts | 51° |
| 2026-05-07 05:39 | -31.70387 | 160.60712 | 30934 ft | 539 kts | 51° |
| 2026-05-07 05:39 | -31.66655 | 160.68292 | 30945 ft | 539 kts | 51° |
| 2026-05-07 05:40 | -31.62895 | 160.75918 | 30946 ft | 540 kts | 50° |
| 2026-05-07 05:40 | -31.59114 | 160.83563 | 30965 ft | 542 kts | 50° |
| 2026-05-07 05:41 | -31.55315 | 160.91230 | 30944 ft | 544 kts | 51° |
| 2026-05-07 05:41 | -31.51509 | 160.98905 | 30952 ft | 545 kts | 51° |
| 2026-05-07 05:42 | -31.47693 | 161.06585 | 30954 ft | 546 kts | 51° |
| 2026-05-07 05:42 | -31.43870 | 161.14263 | 30942 ft | 545 kts | 51° |
| 2026-05-07 05:43 | -31.40065 | 161.21888 | 30958 ft | 545 kts | 51° |
| 2026-05-07 05:43 | -31.36231 | 161.29552 | 30947 ft | 546 kts | 51° |